Tatamy, Pennsylvania
Current Conditions -  °F | °C
As of 2:51 AM on Sunday 26 Oct 2014 (Local Time) from KABE Reporting Station
Few Clouds Few Clouds  
Wind Chill: 54°   Ceiling: Unl
Heat Index: 54°   Visibility: 10mi
Dew Point: 39°   Wind: 3mph
Humidity: 57%   Direction: 230°SW
Pressure: 29.58"   Gusts: NA
Location:  40.74°N, 75.26°W
Report Text: KABE 260651Z AUTO 23003KT 10SM FEW065 12/04 A2958 RMK AO2 SLP017 T01220039 TSNO
Loading
Personal Weather Stations






























Interactive Weather Map
Tropical Storm Tracking
New forecast layout! Learn more

10-Day Weather Forecast

Advertisements
Track Severe Weather on mobile